sensor_id;sensor_type;location;lat;lon;timestamp;P1;durP1;ratioP1;P2;durP2;ratioP2
13607;SDS011;6875;50.852;5.672;2023-02-15T00:01:28;42.00;;;26.80;;
13607;SDS011;6875;50.852;5.672;2023-02-15T00:03:55;46.03;;;27.47;;
13607;SDS011;6875;50.852;5.672;2023-02-15T00:06:24;45.07;;;26.73;;
13607;SDS011;6875;50.852;5.672;2023-02-15T00:08:50;44.77;;;27.87;;
13607;SDS011;6875;50.852;5.672;2023-02-15T00:11:18;44.73;;;27.00;;
13607;SDS011;6875;50.852;5.672;2023-02-15T00:14:04;50.60;;;28.80;;
13607;SDS011;6875;50.852;5.672;2023-02-15T00:16:32;46.47;;;27.20;;
13607;SDS011;6875;50.852;5.672;2023-02-15T00:18:59;46.40;;;27.67;;
13607;SDS011;6875;50.852;5.672;2023-02-15T00:21:29;46.50;;;28.33;;
13607;SDS011;6875;50.852;5.672;2023-02-15T00:23:56;44.43;;;26.00;;
13607;SDS011;6875;50.852;5.672;2023-02-15T00:26:24;41.80;;;25.40;;
13607;SDS011;6875;50.852;5.672;2023-02-15T00:28:51;43.33;;;25.07;;
13607;SDS011;6875;50.852;5.672;2023-02-15T00:31:18;40.90;;;25.60;;
13607;SDS011;6875;50.852;5.672;2023-02-15T00:33:44;44.57;;;26.10;;
13607;SDS011;6875;50.852;5.672;2023-02-15T00:36:11;41.30;;;25.97;;
13607;SDS011;6875;50.852;5.672;2023-02-15T00:38:41;41.60;;;26.70;;
13607;SDS011;6875;50.852;5.672;2023-02-15T00:41:08;42.90;;;26.27;;
13607;SDS011;6875;50.852;5.672;2023-02-15T00:43:35;45.17;;;27.27;;
13607;SDS011;6875;50.852;5.672;2023-02-15T00:46:03;42.97;;;25.43;;
13607;SDS011;6875;50.852;5.672;2023-02-15T00:48:30;38.20;;;24.93;;
13607;SDS011;6875;50.852;5.672;2023-02-15T00:51:00;43.90;;;24.87;;
13607;SDS011;6875;50.852;5.672;2023-02-15T00:53:27;41.60;;;26.20;;
13607;SDS011;6875;50.852;5.672;2023-02-15T00:55:55;43.70;;;25.87;;
13607;SDS011;6875;50.852;5.672;2023-02-15T00:58:23;42.27;;;24.77;;
13607;SDS011;6875;50.852;5.672;2023-02-15T01:00:50;48.27;;;27.77;;
13607;SDS011;6875;50.852;5.672;2023-02-15T01:03:17;45.27;;;26.03;;
13607;SDS011;6875;50.852;5.672;2023-02-15T01:05:46;47.37;;;28.33;;
13607;SDS011;6875;50.852;5.672;2023-02-15T01:08:14;41.50;;;26.80;;
13607;SDS011;6875;50.852;5.672;2023-02-15T01:10:40;40.40;;;26.00;;
13607;SDS011;6875;50.852;5.672;2023-02-15T01:13:10;43.90;;;25.67;;
13607;SDS011;6875;50.852;5.672;2023-02-15T01:15:37;43.50;;;25.57;;
13607;SDS011;6875;50.852;5.672;2023-02-15T01:18:03;44.07;;;25.80;;
13607;SDS011;6875;50.852;5.672;2023-02-15T01:20:34;42.30;;;25.10;;
13607;SDS011;6875;50.852;5.672;2023-02-15T01:23:02;45.60;;;25.13;;
13607;SDS011;6875;50.852;5.672;2023-02-15T01:25:28;44.07;;;25.97;;
13607;SDS011;6875;50.852;5.672;2023-02-15T01:27:55;45.17;;;27.07;;
13607;SDS011;6875;50.852;5.672;2023-02-15T01:30:23;42.07;;;24.87;;
13607;SDS011;6875;50.852;5.672;2023-02-15T01:32:50;47.83;;;26.03;;
13607;SDS011;6875;50.852;5.672;2023-02-15T01:35:19;43.90;;;24.13;;
13607;SDS011;6875;50.852;5.672;2023-02-15T01:37:47;41.07;;;24.57;;
13607;SDS011;6875;50.852;5.672;2023-02-15T01:40:14;40.77;;;24.50;;
13607;SDS011;6875;50.852;5.672;2023-02-15T01:42:43;41.90;;;24.73;;
13607;SDS011;6875;50.852;5.672;2023-02-15T01:45:14;40.83;;;24.13;;
13607;SDS011;6875;50.852;5.672;2023-02-15T01:47:49;46.23;;;26.47;;
13607;SDS011;6875;50.852;5.672;2023-02-15T01:50:20;47.70;;;26.40;;
13607;SDS011;6875;50.852;5.672;2023-02-15T01:52:49;47.53;;;28.37;;
13607;SDS011;6875;50.852;5.672;2023-02-15T01:55:22;46.87;;;25.10;;
13607;SDS011;6875;50.852;5.672;2023-02-15T01:57:50;43.17;;;25.50;;
13607;SDS011;6875;50.852;5.672;2023-02-15T02:00:17;43.50;;;24.47;;
13607;SDS011;6875;50.852;5.672;2023-02-15T02:02:44;40.50;;;24.40;;
13607;SDS011;6875;50.852;5.672;2023-02-15T02:05:15;39.37;;;23.13;;
13607;SDS011;6875;50.852;5.672;2023-02-15T02:07:42;39.50;;;24.43;;
13607;SDS011;6875;50.852;5.672;2023-02-15T02:10:12;43.47;;;24.70;;
13607;SDS011;6875;50.852;5.672;2023-02-15T02:12:39;40.90;;;24.73;;
13607;SDS011;6875;50.852;5.672;2023-02-15T02:15:07;38.27;;;23.43;;
13607;SDS011;6875;50.852;5.672;2023-02-15T02:17:37;39.90;;;22.53;;
13607;SDS011;6875;50.852;5.672;2023-02-15T02:20:25;37.10;;;23.70;;
13607;SDS011;6875;50.852;5.672;2023-02-15T02:23:08;42.00;;;25.90;;
13607;SDS011;6875;50.852;5.672;2023-02-15T02:25:51;42.97;;;25.17;;
13607;SDS011;6875;50.852;5.672;2023-02-15T02:28:32;44.93;;;25.03;;
13607;SDS011;6875;50.852;5.672;2023-02-15T02:31:18;51.57;;;29.33;;
13607;SDS011;6875;50.852;5.672;2023-02-15T02:33:58;47.37;;;27.10;;
13607;SDS011;6875;50.852;5.672;2023-02-15T02:36:30;46.87;;;26.77;;
13607;SDS011;6875;50.852;5.672;2023-02-15T02:39:03;46.27;;;26.40;;
13607;SDS011;6875;50.852;5.672;2023-02-15T02:41:36;47.47;;;27.53;;
13607;SDS011;6875;50.852;5.672;2023-02-15T02:44:07;46.43;;;27.57;;
13607;SDS011;6875;50.852;5.672;2023-02-15T02:46:41;43.57;;;24.07;;
13607;SDS011;6875;50.852;5.672;2023-02-15T02:49:13;41.40;;;24.83;;
13607;SDS011;6875;50.852;5.672;2023-02-15T02:51:40;41.00;;;23.67;;
13607;SDS011;6875;50.852;5.672;2023-02-15T02:54:07;36.80;;;21.57;;
13607;SDS011;6875;50.852;5.672;2023-02-15T02:56:35;45.00;;;26.00;;
13607;SDS011;6875;50.852;5.672;2023-02-15T02:59:04;39.03;;;23.40;;
13607;SDS011;6875;50.852;5.672;2023-02-15T03:01:36;41.57;;;23.97;;
13607;SDS011;6875;50.852;5.672;2023-02-15T03:04:05;39.93;;;23.73;;
13607;SDS011;6875;50.852;5.672;2023-02-15T03:06:38;37.37;;;22.67;;
13607;SDS011;6875;50.852;5.672;2023-02-15T03:09:08;39.33;;;23.03;;
13607;SDS011;6875;50.852;5.672;2023-02-15T03:11:39;40.37;;;23.73;;
13607;SDS011;6875;50.852;5.672;2023-02-15T03:14:08;41.20;;;23.80;;
13607;SDS011;6875;50.852;5.672;2023-02-15T03:16:35;49.50;;;26.53;;
13607;SDS011;6875;50.852;5.672;2023-02-15T03:19:05;53.93;;;28.00;;
13607;SDS011;6875;50.852;5.672;2023-02-15T03:21:34;47.00;;;27.40;;
13607;SDS011;6875;50.852;5.672;2023-02-15T03:24:07;55.73;;;31.33;;
13607;SDS011;6875;50.852;5.672;2023-02-15T03:26:36;51.73;;;30.23;;
13607;SDS011;6875;50.852;5.672;2023-02-15T03:29:05;55.93;;;28.63;;
13607;SDS011;6875;50.852;5.672;2023-02-15T03:31:33;44.23;;;26.33;;
13607;SDS011;6875;50.852;5.672;2023-02-15T03:34:03;55.10;;;28.53;;
13607;SDS011;6875;50.852;5.672;2023-02-15T03:36:32;65.87;;;31.17;;
13607;SDS011;6875;50.852;5.672;2023-02-15T03:39:04;51.73;;;29.23;;
13607;SDS011;6875;50.852;5.672;2023-02-15T03:41:38;53.70;;;29.23;;
13607;SDS011;6875;50.852;5.672;2023-02-15T03:44:07;48.63;;;28.63;;
13607;SDS011;6875;50.852;5.672;2023-02-15T03:46:39;53.63;;;30.33;;
13607;SDS011;6875;50.852;5.672;2023-02-15T03:49:09;56.10;;;30.77;;
13607;SDS011;6875;50.852;5.672;2023-02-15T03:51:38;54.03;;;31.17;;
13607;SDS011;6875;50.852;5.672;2023-02-15T03:54:08;54.23;;;30.60;;
13607;SDS011;6875;50.852;5.672;2023-02-15T03:56:37;57.97;;;30.93;;
13607;SDS011;6875;50.852;5.672;2023-02-15T03:59:06;55.73;;;29.03;;
13607;SDS011;6875;50.852;5.672;2023-02-15T04:01:54;56.40;;;30.03;;
13607;SDS011;6875;50.852;5.672;2023-02-15T04:04:32;55.87;;;31.37;;
13607;SDS011;6875;50.852;5.672;2023-02-15T04:07:01;50.80;;;28.87;;
13607;SDS011;6875;50.852;5.672;2023-02-15T04:09:29;55.83;;;30.53;;
13607;SDS011;6875;50.852;5.672;2023-02-15T04:12:13;53.33;;;28.23;;
13607;SDS011;6875;50.852;5.672;2023-02-15T04:14:40;57.57;;;29.07;;
13607;SDS011;6875;50.852;5.672;2023-02-15T04:17:24;54.90;;;30.07;;
13607;SDS011;6875;50.852;5.672;2023-02-15T04:19:51;53.57;;;29.47;;
13607;SDS011;6875;50.852;5.672;2023-02-15T04:22:35;53.40;;;28.77;;
13607;SDS011;6875;50.852;5.672;2023-02-15T04:25:20;58.30;;;32.73;;
13607;SDS011;6875;50.852;5.672;2023-02-15T04:27:48;52.10;;;29.53;;
13607;SDS011;6875;50.852;5.672;2023-02-15T04:30:16;51.93;;;28.67;;
13607;SDS011;6875;50.852;5.672;2023-02-15T04:32:44;52.37;;;28.57;;
13607;SDS011;6875;50.852;5.672;2023-02-15T04:35:14;54.77;;;29.43;;
13607;SDS011;6875;50.852;5.672;2023-02-15T04:37:41;51.40;;;29.23;;
13607;SDS011;6875;50.852;5.672;2023-02-15T04:40:09;54.17;;;31.37;;
13607;SDS011;6875;50.852;5.672;2023-02-15T04:42:39;62.90;;;31.27;;
13607;SDS011;6875;50.852;5.672;2023-02-15T04:45:06;56.53;;;30.57;;
13607;SDS011;6875;50.852;5.672;2023-02-15T04:47:33;60.50;;;32.37;;
13607;SDS011;6875;50.852;5.672;2023-02-15T04:50:00;57.33;;;31.10;;
13607;SDS011;6875;50.852;5.672;2023-02-15T04:52:27;60.37;;;32.37;;
13607;SDS011;6875;50.852;5.672;2023-02-15T04:54:54;52.40;;;28.70;;
13607;SDS011;6875;50.852;5.672;2023-02-15T04:57:21;65.63;;;32.53;;
13607;SDS011;6875;50.852;5.672;2023-02-15T04:59:49;56.37;;;32.43;;
13607;SDS011;6875;50.852;5.672;2023-02-15T05:02:16;60.00;;;33.83;;
13607;SDS011;6875;50.852;5.672;2023-02-15T05:04:44;54.03;;;29.47;;
13607;SDS011;6875;50.852;5.672;2023-02-15T05:07:12;55.00;;;30.27;;
13607;SDS011;6875;50.852;5.672;2023-02-15T05:09:43;59.13;;;30.30;;
13607;SDS011;6875;50.852;5.672;2023-02-15T05:12:10;61.20;;;31.63;;
13607;SDS011;6875;50.852;5.672;2023-02-15T05:14:36;52.73;;;28.57;;
13607;SDS011;6875;50.852;5.672;2023-02-15T05:17:05;56.30;;;29.27;;
13607;SDS011;6875;50.852;5.672;2023-02-15T05:19:32;53.50;;;29.67;;
13607;SDS011;6875;50.852;5.672;2023-02-15T05:21:58;61.23;;;32.70;;
13607;SDS011;6875;50.852;5.672;2023-02-15T05:24:25;55.40;;;29.97;;
13607;SDS011;6875;50.852;5.672;2023-02-15T05:27:10;55.83;;;30.97;;
13607;SDS011;6875;50.852;5.672;2023-02-15T05:29:55;56.53;;;29.43;;
13607;SDS011;6875;50.852;5.672;2023-02-15T05:32:23;56.40;;;30.50;;
13607;SDS011;6875;50.852;5.672;2023-02-15T05:34:50;55.30;;;30.20;;
13607;SDS011;6875;50.852;5.672;2023-02-15T05:37:17;59.67;;;30.93;;
13607;SDS011;6875;50.852;5.672;2023-02-15T05:39:43;58.77;;;30.63;;
13607;SDS011;6875;50.852;5.672;2023-02-15T05:42:10;59.37;;;31.00;;
13607;SDS011;6875;50.852;5.672;2023-02-15T05:44:37;55.40;;;30.57;;
13607;SDS011;6875;50.852;5.672;2023-02-15T05:47:03;55.93;;;30.47;;
13607;SDS011;6875;50.852;5.672;2023-02-15T05:49:33;53.20;;;29.57;;
13607;SDS011;6875;50.852;5.672;2023-02-15T05:52:00;52.33;;;29.50;;
13607;SDS011;6875;50.852;5.672;2023-02-15T05:54:27;55.23;;;28.93;;
13607;SDS011;6875;50.852;5.672;2023-02-15T05:56:54;53.53;;;29.13;;
13607;SDS011;6875;50.852;5.672;2023-02-15T05:59:21;55.37;;;30.37;;
13607;SDS011;6875;50.852;5.672;2023-02-15T06:01:49;53.33;;;28.93;;
13607;SDS011;6875;50.852;5.672;2023-02-15T06:04:16;54.57;;;29.83;;
13607;SDS011;6875;50.852;5.672;2023-02-15T06:06:44;50.83;;;29.27;;
13607;SDS011;6875;50.852;5.672;2023-02-15T06:09:11;51.00;;;28.37;;
13607;SDS011;6875;50.852;5.672;2023-02-15T06:11:38;55.87;;;29.33;;
13607;SDS011;6875;50.852;5.672;2023-02-15T06:14:05;45.97;;;27.10;;
13607;SDS011;6875;50.852;5.672;2023-02-15T06:16:32;54.43;;;29.03;;
13607;SDS011;6875;50.852;5.672;2023-02-15T06:18:59;48.60;;;27.87;;
13607;SDS011;6875;50.852;5.672;2023-02-15T06:21:26;56.33;;;28.37;;
13607;SDS011;6875;50.852;5.672;2023-02-15T06:23:55;54.87;;;29.33;;
13607;SDS011;6875;50.852;5.672;2023-02-15T06:26:21;54.27;;;30.23;;
13607;SDS011;6875;50.852;5.672;2023-02-15T06:28:48;54.33;;;28.73;;
13607;SDS011;6875;50.852;5.672;2023-02-15T06:31:15;54.17;;;30.10;;
13607;SDS011;6875;50.852;5.672;2023-02-15T06:33:42;59.03;;;31.87;;
13607;SDS011;6875;50.852;5.672;2023-02-15T06:36:08;55.57;;;30.67;;
13607;SDS011;6875;50.852;5.672;2023-02-15T06:38:35;52.50;;;29.13;;
13607;SDS011;6875;50.852;5.672;2023-02-15T06:41:05;58.63;;;30.67;;
13607;SDS011;6875;50.852;5.672;2023-02-15T06:43:32;52.63;;;29.23;;
13607;SDS011;6875;50.852;5.672;2023-02-15T06:45:59;57.83;;;31.03;;
13607;SDS011;6875;50.852;5.672;2023-02-15T06:48:26;61.13;;;31.97;;
13607;SDS011;6875;50.852;5.672;2023-02-15T06:50:53;54.77;;;30.00;;
13607;SDS011;6875;50.852;5.672;2023-02-15T06:53:19;54.00;;;30.57;;
13607;SDS011;6875;50.852;5.672;2023-02-15T06:55:46;56.20;;;29.47;;
13607;SDS011;6875;50.852;5.672;2023-02-15T06:58:14;57.30;;;31.67;;
13607;SDS011;6875;50.852;5.672;2023-02-15T07:00:41;59.77;;;29.50;;
13607;SDS011;6875;50.852;5.672;2023-02-15T07:03:08;57.17;;;31.03;;
13607;SDS011;6875;50.852;5.672;2023-02-15T07:05:35;55.47;;;29.53;;
13607;SDS011;6875;50.852;5.672;2023-02-15T07:08:02;60.13;;;31.40;;
13607;SDS011;6875;50.852;5.672;2023-02-15T07:10:29;58.37;;;31.57;;
13607;SDS011;6875;50.852;5.672;2023-02-15T07:12:56;55.67;;;29.40;;
13607;SDS011;6875;50.852;5.672;2023-02-15T07:15:23;56.57;;;28.87;;
13607;SDS011;6875;50.852;5.672;2023-02-15T07:17:50;58.13;;;30.13;;
13607;SDS011;6875;50.852;5.672;2023-02-15T07:20:17;56.63;;;29.87;;
13607;SDS011;6875;50.852;5.672;2023-02-15T07:22:45;56.83;;;31.27;;
13607;SDS011;6875;50.852;5.672;2023-02-15T07:25:12;50.87;;;29.23;;
13607;SDS011;6875;50.852;5.672;2023-02-15T07:27:39;54.90;;;30.47;;
13607;SDS011;6875;50.852;5.672;2023-02-15T07:30:08;57.67;;;30.73;;
13607;SDS011;6875;50.852;5.672;2023-02-15T07:32:37;54.93;;;29.87;;
13607;SDS011;6875;50.852;5.672;2023-02-15T07:35:24;54.07;;;30.33;;
13607;SDS011;6875;50.852;5.672;2023-02-15T07:37:51;54.20;;;30.87;;
13607;SDS011;6875;50.852;5.672;2023-02-15T07:40:18;54.77;;;29.50;;
13607;SDS011;6875;50.852;5.672;2023-02-15T07:42:47;57.97;;;32.33;;
13607;SDS011;6875;50.852;5.672;2023-02-15T07:45:14;55.97;;;31.23;;
13607;SDS011;6875;50.852;5.672;2023-02-15T07:47:42;62.60;;;31.30;;
13607;SDS011;6875;50.852;5.672;2023-02-15T07:50:08;60.00;;;31.17;;
13607;SDS011;6875;50.852;5.672;2023-02-15T07:52:38;55.07;;;30.53;;
13607;SDS011;6875;50.852;5.672;2023-02-15T07:55:04;52.47;;;28.97;;
13607;SDS011;6875;50.852;5.672;2023-02-15T07:57:33;54.57;;;30.47;;
13607;SDS011;6875;50.852;5.672;2023-02-15T08:00:01;57.07;;;31.23;;
13607;SDS011;6875;50.852;5.672;2023-02-15T08:02:28;51.17;;;29.93;;
13607;SDS011;6875;50.852;5.672;2023-02-15T08:04:56;52.67;;;30.77;;
13607;SDS011;6875;50.852;5.672;2023-02-15T08:07:23;47.17;;;27.67;;
13607;SDS011;6875;50.852;5.672;2023-02-15T08:09:49;48.43;;;29.27;;
13607;SDS011;6875;50.852;5.672;2023-02-15T08:12:16;57.00;;;30.50;;
13607;SDS011;6875;50.852;5.672;2023-02-15T08:14:43;50.50;;;28.90;;
13607;SDS011;6875;50.852;5.672;2023-02-15T08:17:09;49.33;;;29.47;;
13607;SDS011;6875;50.852;5.672;2023-02-15T08:19:36;53.33;;;29.63;;
13607;SDS011;6875;50.852;5.672;2023-02-15T08:22:05;56.83;;;30.47;;
13607;SDS011;6875;50.852;5.672;2023-02-15T08:24:33;50.17;;;29.00;;
13607;SDS011;6875;50.852;5.672;2023-02-15T08:27:02;52.03;;;29.17;;
13607;SDS011;6875;50.852;5.672;2023-02-15T08:29:29;51.43;;;28.77;;
13607;SDS011;6875;50.852;5.672;2023-02-15T08:31:58;49.63;;;27.80;;
13607;SDS011;6875;50.852;5.672;2023-02-15T08:34:27;46.83;;;28.03;;
13607;SDS011;6875;50.852;5.672;2023-02-15T08:36:54;46.40;;;27.83;;
13607;SDS011;6875;50.852;5.672;2023-02-15T08:39:23;41.53;;;26.13;;
13607;SDS011;6875;50.852;5.672;2023-02-15T08:41:50;41.63;;;26.37;;
13607;SDS011;6875;50.852;5.672;2023-02-15T08:44:18;42.20;;;27.20;;
13607;SDS011;6875;50.852;5.672;2023-02-15T08:46:45;47.40;;;27.57;;
13607;SDS011;6875;50.852;5.672;2023-02-15T08:49:15;44.33;;;25.93;;
13607;SDS011;6875;50.852;5.672;2023-02-15T08:51:43;42.13;;;25.60;;
13607;SDS011;6875;50.852;5.672;2023-02-15T08:54:11;39.57;;;25.53;;
13607;SDS011;6875;50.852;5.672;2023-02-15T08:56:40;39.27;;;25.37;;
13607;SDS011;6875;50.852;5.672;2023-02-15T08:59:11;35.77;;;23.27;;
13607;SDS011;6875;50.852;5.672;2023-02-15T09:01:40;39.53;;;26.03;;
13607;SDS011;6875;50.852;5.672;2023-02-15T09:04:07;40.37;;;24.73;;
13607;SDS011;6875;50.852;5.672;2023-02-15T09:06:34;37.93;;;24.07;;
13607;SDS011;6875;50.852;5.672;2023-02-15T09:09:02;42.30;;;25.97;;
13607;SDS011;6875;50.852;5.672;2023-02-15T09:11:30;40.20;;;25.70;;
13607;SDS011;6875;50.852;5.672;2023-02-15T09:14:03;39.23;;;24.93;;
13607;SDS011;6875;50.852;5.672;2023-02-15T09:16:31;39.47;;;26.47;;
13607;SDS011;6875;50.852;5.672;2023-02-15T09:18:59;42.07;;;25.30;;
13607;SDS011;6875;50.852;5.672;2023-02-15T09:21:27;41.97;;;25.30;;
13607;SDS011;6875;50.852;5.672;2023-02-15T09:23:55;42.73;;;26.47;;
13607;SDS011;6875;50.852;5.672;2023-02-15T09:26:24;43.57;;;26.03;;
13607;SDS011;6875;50.852;5.672;2023-02-15T09:28:52;40.27;;;24.50;;
13607;SDS011;6875;50.852;5.672;2023-02-15T09:31:24;38.87;;;24.93;;
13607;SDS011;6875;50.852;5.672;2023-02-15T09:33:51;41.30;;;25.53;;
13607;SDS011;6875;50.852;5.672;2023-02-15T09:36:19;38.00;;;24.63;;
13607;SDS011;6875;50.852;5.672;2023-02-15T09:38:48;42.13;;;25.37;;
13607;SDS011;6875;50.852;5.672;2023-02-15T09:41:29;38.40;;;23.10;;
13607;SDS011;6875;50.852;5.672;2023-02-15T09:44:06;39.20;;;23.77;;
13607;SDS011;6875;50.852;5.672;2023-02-15T09:46:47;43.93;;;26.57;;
13607;SDS011;6875;50.852;5.672;2023-02-15T09:49:23;40.27;;;24.40;;
13607;SDS011;6875;50.852;5.672;2023-02-15T09:52:01;38.77;;;24.40;;
13607;SDS011;6875;50.852;5.672;2023-02-15T09:54:39;38.57;;;24.50;;
13607;SDS011;6875;50.852;5.672;2023-02-15T09:57:13;39.80;;;24.47;;
13607;SDS011;6875;50.852;5.672;2023-02-15T09:59:47;38.27;;;23.73;;
13607;SDS011;6875;50.852;5.672;2023-02-15T10:02:23;37.67;;;23.53;;
13607;SDS011;6875;50.852;5.672;2023-02-15T10:05:05;36.27;;;23.27;;
13607;SDS011;6875;50.852;5.672;2023-02-15T10:07:53;37.77;;;23.27;;
13607;SDS011;6875;50.852;5.672;2023-02-15T10:10:38;37.47;;;24.07;;
13607;SDS011;6875;50.852;5.672;2023-02-15T10:13:13;39.70;;;24.77;;
13607;SDS011;6875;50.852;5.672;2023-02-15T10:15:57;37.87;;;24.73;;
13607;SDS011;6875;50.852;5.672;2023-02-15T10:21:25;41.03;;;24.33;;
13607;SDS011;6875;50.852;5.672;2023-02-15T10:26:53;36.07;;;23.83;;
13607;SDS011;6875;50.852;5.672;2023-02-15T10:29:25;38.70;;;22.90;;
13607;SDS011;6875;50.852;5.672;2023-02-15T10:31:58;36.07;;;23.63;;
13607;SDS011;6875;50.852;5.672;2023-02-15T10:34:36;33.37;;;22.87;;
13607;SDS011;6875;50.852;5.672;2023-02-15T10:37:09;35.30;;;23.07;;
13607;SDS011;6875;50.852;5.672;2023-02-15T10:39:46;35.00;;;23.50;;
13607;SDS011;6875;50.852;5.672;2023-02-15T10:42:20;35.67;;;23.50;;
13607;SDS011;6875;50.852;5.672;2023-02-15T10:44:58;35.27;;;21.53;;
13607;SDS011;6875;50.852;5.672;2023-02-15T10:47:37;38.33;;;24.43;;
13607;SDS011;6875;50.852;5.672;2023-02-15T10:55:55;36.07;;;22.37;;
13607;SDS011;6875;50.852;5.672;2023-02-15T10:58:26;32.07;;;22.23;;
13607;SDS011;6875;50.852;5.672;2023-02-15T11:01:00;35.00;;;22.23;;
13607;SDS011;6875;50.852;5.672;2023-02-15T11:03:35;34.30;;;23.07;;
13607;SDS011;6875;50.852;5.672;2023-02-15T11:06:09;40.27;;;24.87;;
13607;SDS011;6875;50.852;5.672;2023-02-15T11:08:38;34.33;;;23.07;;
13607;SDS011;6875;50.852;5.672;2023-02-15T11:11:06;32.93;;;22.43;;
13607;SDS011;6875;50.852;5.672;2023-02-15T11:13:36;35.57;;;23.63;;
13607;SDS011;6875;50.852;5.672;2023-02-15T11:16:07;36.17;;;23.90;;
13607;SDS011;6875;50.852;5.672;2023-02-15T11:18:38;33.53;;;22.20;;
13607;SDS011;6875;50.852;5.672;2023-02-15T11:21:12;37.13;;;24.20;;
13607;SDS011;6875;50.852;5.672;2023-02-15T11:23:45;38.67;;;24.13;;
13607;SDS011;6875;50.852;5.672;2023-02-15T11:26:13;34.27;;;24.20;;
13607;SDS011;6875;50.852;5.672;2023-02-15T11:28:43;34.60;;;23.30;;
13607;SDS011;6875;50.852;5.672;2023-02-15T11:31:13;34.13;;;23.87;;
13607;SDS011;6875;50.852;5.672;2023-02-15T11:33:44;39.23;;;25.70;;
13607;SDS011;6875;50.852;5.672;2023-02-15T11:36:15;37.77;;;24.27;;
13607;SDS011;6875;50.852;5.672;2023-02-15T11:38:44;38.37;;;25.47;;
13607;SDS011;6875;50.852;5.672;2023-02-15T11:41:13;36.37;;;23.97;;
13607;SDS011;6875;50.852;5.672;2023-02-15T11:43:45;38.37;;;23.37;;
13607;SDS011;6875;50.852;5.672;2023-02-15T11:46:14;41.30;;;25.67;;
13607;SDS011;6875;50.852;5.672;2023-02-15T11:48:41;34.93;;;24.30;;
13607;SDS011;6875;50.852;5.672;2023-02-15T11:51:11;38.50;;;25.20;;
13607;SDS011;6875;50.852;5.672;2023-02-15T11:53:42;34.30;;;24.83;;
13607;SDS011;6875;50.852;5.672;2023-02-15T11:56:12;33.07;;;24.63;;
13607;SDS011;6875;50.852;5.672;2023-02-15T11:58:41;37.23;;;24.80;;
13607;SDS011;6875;50.852;5.672;2023-02-15T12:01:11;40.30;;;26.50;;
13607;SDS011;6875;50.852;5.672;2023-02-15T12:03:43;36.67;;;25.27;;
13607;SDS011;6875;50.852;5.672;2023-02-15T12:06:13;37.17;;;25.23;;
13607;SDS011;6875;50.852;5.672;2023-02-15T12:08:46;40.43;;;26.27;;
13607;SDS011;6875;50.852;5.672;2023-02-15T12:11:18;39.47;;;26.27;;
13607;SDS011;6875;50.852;5.672;2023-02-15T12:13:54;35.47;;;25.13;;
13607;SDS011;6875;50.852;5.672;2023-02-15T12:16:22;40.07;;;25.93;;
13607;SDS011;6875;50.852;5.672;2023-02-15T12:18:52;38.23;;;25.80;;
13607;SDS011;6875;50.852;5.672;2023-02-15T12:21:25;41.00;;;25.77;;
13607;SDS011;6875;50.852;5.672;2023-02-15T12:23:56;40.93;;;25.27;;
13607;SDS011;6875;50.852;5.672;2023-02-15T12:26:24;36.33;;;24.87;;
13607;SDS011;6875;50.852;5.672;2023-02-15T12:28:55;34.67;;;23.97;;
13607;SDS011;6875;50.852;5.672;2023-02-15T12:31:27;37.97;;;24.37;;
13607;SDS011;6875;50.852;5.672;2023-02-15T12:33:57;35.63;;;24.73;;
13607;SDS011;6875;50.852;5.672;2023-02-15T12:36:29;36.83;;;23.70;;
13607;SDS011;6875;50.852;5.672;2023-02-15T12:39:05;42.00;;;25.70;;
13607;SDS011;6875;50.852;5.672;2023-02-15T12:41:45;36.20;;;24.60;;
13607;SDS011;6875;50.852;5.672;2023-02-15T12:44:15;35.93;;;22.83;;
13607;SDS011;6875;50.852;5.672;2023-02-15T12:46:47;37.97;;;24.47;;
13607;SDS011;6875;50.852;5.672;2023-02-15T12:49:25;37.43;;;23.57;;
13607;SDS011;6875;50.852;5.672;2023-02-15T12:51:53;34.80;;;23.23;;
13607;SDS011;6875;50.852;5.672;2023-02-15T12:59:56;39.73;;;23.37;;
13607;SDS011;6875;50.852;5.672;2023-02-15T13:02:25;35.60;;;22.57;;
13607;SDS011;6875;50.852;5.672;2023-02-15T13:04:54;34.10;;;23.00;;
13607;SDS011;6875;50.852;5.672;2023-02-15T13:07:23;38.03;;;23.20;;
13607;SDS011;6875;50.852;5.672;2023-02-15T13:09:52;34.33;;;22.67;;
13607;SDS011;6875;50.852;5.672;2023-02-15T13:12:20;37.37;;;23.57;;
13607;SDS011;6875;50.852;5.672;2023-02-15T13:14:52;36.23;;;24.87;;
13607;SDS011;6875;50.852;5.672;2023-02-15T13:17:21;35.93;;;23.63;;
13607;SDS011;6875;50.852;5.672;2023-02-15T13:19:54;36.47;;;23.30;;
13607;SDS011;6875;50.852;5.672;2023-02-15T13:22:23;34.77;;;22.83;;
13607;SDS011;6875;50.852;5.672;2023-02-15T13:24:55;34.47;;;22.67;;
13607;SDS011;6875;50.852;5.672;2023-02-15T13:27:24;34.03;;;22.90;;
13607;SDS011;6875;50.852;5.672;2023-02-15T13:29:55;38.10;;;23.37;;
13607;SDS011;6875;50.852;5.672;2023-02-15T13:32:26;33.33;;;22.53;;
13607;SDS011;6875;50.852;5.672;2023-02-15T13:34:56;34.10;;;23.27;;
13607;SDS011;6875;50.852;5.672;2023-02-15T13:37:30;41.13;;;23.43;;
13607;SDS011;6875;50.852;5.672;2023-02-15T13:40:09;31.17;;;21.47;;
13607;SDS011;6875;50.852;5.672;2023-02-15T13:42:40;35.57;;;22.47;;
13607;SDS011;6875;50.852;5.672;2023-02-15T13:45:13;39.17;;;23.83;;
13607;SDS011;6875;50.852;5.672;2023-02-15T13:47:54;37.60;;;21.93;;
13607;SDS011;6875;50.852;5.672;2023-02-15T13:50:33;37.83;;;22.67;;
13607;SDS011;6875;50.852;5.672;2023-02-15T13:53:31;34.37;;;22.63;;
13607;SDS011;6875;50.852;5.672;2023-02-15T13:56:09;34.03;;;23.00;;
13607;SDS011;6875;50.852;5.672;2023-02-15T13:58:47;32.63;;;22.33;;
13607;SDS011;6875;50.852;5.672;2023-02-15T14:01:24;33.83;;;22.03;;
13607;SDS011;6875;50.852;5.672;2023-02-15T14:04:10;38.13;;;24.47;;
13607;SDS011;6875;50.852;5.672;2023-02-15T14:06:47;32.80;;;23.07;;
13607;SDS011;6875;50.852;5.672;2023-02-15T14:09:23;32.33;;;22.30;;
13607;SDS011;6875;50.852;5.672;2023-02-15T14:12:09;33.07;;;22.53;;
13607;SDS011;6875;50.852;5.672;2023-02-15T14:14:55;34.70;;;22.83;;
13607;SDS011;6875;50.852;5.672;2023-02-15T14:17:32;35.07;;;23.33;;
13607;SDS011;6875;50.852;5.672;2023-02-15T14:20:08;37.37;;;23.37;;
13607;SDS011;6875;50.852;5.672;2023-02-15T14:22:44;37.23;;;23.40;;
13607;SDS011;6875;50.852;5.672;2023-02-15T14:25:16;34.40;;;23.80;;
13607;SDS011;6875;50.852;5.672;2023-02-15T14:27:52;35.93;;;23.30;;
13607;SDS011;6875;50.852;5.672;2023-02-15T14:30:25;34.77;;;24.20;;
13607;SDS011;6875;50.852;5.672;2023-02-15T14:32:53;37.23;;;24.07;;
13607;SDS011;6875;50.852;5.672;2023-02-15T14:35:22;34.37;;;22.97;;
13607;SDS011;6875;50.852;5.672;2023-02-15T14:37:53;37.30;;;23.97;;
13607;SDS011;6875;50.852;5.672;2023-02-15T14:40:30;38.13;;;23.77;;
13607;SDS011;6875;50.852;5.672;2023-02-15T14:43:21;38.67;;;24.20;;
13607;SDS011;6875;50.852;5.672;2023-02-15T14:45:54;35.27;;;23.60;;
13607;SDS011;6875;50.852;5.672;2023-02-15T14:48:24;38.60;;;24.47;;
13607;SDS011;6875;50.852;5.672;2023-02-15T14:50:54;35.43;;;23.50;;
13607;SDS011;6875;50.852;5.672;2023-02-15T14:56:21;33.17;;;22.87;;
13607;SDS011;6875;50.852;5.672;2023-02-15T15:01:57;39.20;;;24.97;;
13607;SDS011;6875;50.852;5.672;2023-02-15T15:04:29;39.17;;;24.40;;
13607;SDS011;6875;50.852;5.672;2023-02-15T15:06:59;38.23;;;23.73;;
13607;SDS011;6875;50.852;5.672;2023-02-15T15:09:29;33.30;;;22.37;;
13607;SDS011;6875;50.852;5.672;2023-02-15T15:12:00;38.43;;;24.13;;
13607;SDS011;6875;50.852;5.672;2023-02-15T15:14:41;38.67;;;23.93;;
13607;SDS011;6875;50.852;5.672;2023-02-15T15:17:12;36.17;;;22.73;;